Time;durP1;ratioP1;P1;durP2;ratioP2;P2;SDS_P1;SDS_P2;PMS_P1;PMS_P2;Temp;Humidity;BMP_temperature;BMP_pressure;BME280_temperature;BME280_humidity;BME280_pressure;Samples;Min_cycle;Max_cycle;Signal;HPM_P1;HPM_P2
2022/03/26 00:01:45;;;;;;;44.85;26.02;;;;;;;10.93;36.87;96269.31;4956592;28;20062;-63
2022/03/26 00:04:11;;;;;;;46.08;26.33;;;;;;;10.96;37.32;96289.28;4955402;28;20027;-63
2022/03/26 00:06:38;;;;;;;49.08;28.35;;;;;;;10.86;37.42;96284.81;4955404;29;20445;-62
2022/03/26 00:09:04;;;;;;;48.85;27.85;;;;;;;10.72;37.82;96275.88;4939053;29;20034;-64
2022/03/26 00:11:30;;;;;;;50.03;27.65;;;;;;;10.75;37.34;96288.59;4956343;29;20034;-63
2022/03/26 00:13:55;;;;;;;50.28;28.60;;;;;;;10.66;37.78;96289.19;4939386;29;20028;-62
2022/03/26 00:16:21;;;;;;;48.65;28.50;;;;;;;10.62;38.21;96290.03;4956527;29;20016;-63
2022/03/26 00:18:46;;;;;;;53.00;28.15;;;;;;;10.43;37.89;96270.44;4956028;29;20027;-64
2022/03/26 00:21:12;;;;;;;46.92;27.65;;;;;;;10.39;38.12;96284.31;4956291;29;20097;-63
2022/03/26 00:23:37;;;;;;;48.22;26.98;;;;;;;10.28;38.39;96272.13;4956488;29;20114;-63
2022/03/26 00:26:03;;;;;;;50.92;28.30;;;;;;;10.34;38.92;96292.31;4956223;29;20043;-63
2022/03/26 00:28:28;;;;;;;47.55;25.83;;;;;;;10.29;38.62;96288.88;4956065;28;20079;-62
2022/03/26 00:30:54;;;;;;;48.83;28.58;;;;;;;10.21;38.83;96286.75;4956051;28;20053;-64
2022/03/26 00:33:20;;;;;;;43.22;26.25;;;;;;;10.15;38.84;96294.75;4938770;29;20477;-63
2022/03/26 00:35:46;;;;;;;48.70;25.73;;;;;;;10.07;38.85;96284.69;4955958;28;20035;-62
2022/03/26 00:38:12;;;;;;;41.83;26.70;;;;;;;10.02;39.07;96281.25;4956075;28;20098;-62
2022/03/26 00:40:38;;;;;;;43.10;24.60;;;;;;;9.94;39.83;96281.81;4955778;29;20034;-62
2022/03/26 00:43:04;;;;;;;44.03;26.02;;;;;;;9.89;39.76;96282.63;4955868;29;20492;-63
2022/03/26 00:45:29;;;;;;;40.00;24.52;;;;;;;9.79;39.67;96262.19;4955877;29;20038;-63
2022/03/26 00:47:56;;;;;;;47.42;27.40;;;;;;;9.80;39.76;96266.44;4955911;29;20087;-63
2022/03/26 00:50:22;;;;;;;42.78;26.23;;;;;;;9.95;40.17;96286.84;4955587;29;20023;-64
2022/03/26 00:52:48;;;;;;;49.20;26.55;;;;;;;9.81;40.04;96275.22;4955735;28;20469;-63
2022/03/26 00:55:13;;;;;;;42.13;24.50;;;;;;;9.69;39.98;96261.44;4955735;29;20027;-63
2022/03/26 00:57:39;;;;;;;41.42;23.90;;;;;;;9.55;40.60;96250.56;4937456;29;20105;-62
2022/03/26 01:00:06;;;;;;;39.17;24.10;;;;;;;9.66;40.92;96280.56;4938100;29;20027;-63
2022/03/26 01:02:32;;;;;;;39.42;23.88;;;;;;;9.62;41.01;96280.31;4955356;28;20028;-63
2022/03/26 01:04:58;;;;;;;45.72;24.00;;;;;;;9.37;41.30;96271.34;4954295;29;20027;-63
2022/03/26 01:07:26;;;;;;;39.78;21.95;;;;;;;8.96;42.82;96299.78;4955510;29;20483;-64
2022/03/26 01:09:51;;;;;;;41.22;23.65;;;;;;;8.21;44.45;96291.38;4955447;28;20035;-64
2022/03/26 01:12:17;;;;;;;48.58;24.00;;;;;;;8.65;43.61;96306.06;4955251;28;20109;-63
2022/03/26 01:14:43;;;;;;;58.58;27.98;;;;;;;8.43;44.34;96309.75;4955305;29;20059;-63
2022/03/26 01:17:08;;;;;;;46.38;26.45;;;;;;;8.75;43.41;96298.97;4955313;28;20051;-63
2022/03/26 01:19:34;;;;;;;53.42;27.20;;;;;;;9.03;42.33;96297.63;4955152;28;20444;-63
2022/03/26 01:21:59;;;;;;;52.75;27.90;;;;;;;8.87;43.13;96296.03;4955237;28;20031;-64
2022/03/26 01:24:25;;;;;;;51.92;28.27;;;;;;;8.95;42.87;96271.63;4955182;28;20054;-63
2022/03/26 01:26:50;;;;;;;54.15;29.50;;;;;;;9.14;42.39;96282.50;4955253;29;20559;-63
2022/03/26 01:29:15;;;;;;;48.28;27.00;;;;;;;9.27;41.98;96281.97;4954977;29;20130;-63
2022/03/26 01:31:41;;;;;;;56.13;29.02;;;;;;;9.38;41.50;96290.72;4954804;28;20083;-63
2022/03/26 01:34:06;;;;;;;51.70;28.25;;;;;;;9.42;41.89;96297.09;4954857;28;20081;-63
2022/03/26 01:36:32;;;;;;;51.53;29.35;;;;;;;9.23;41.96;96266.84;4937743;29;20027;-63
2022/03/26 01:38:57;;;;;;;54.45;29.23;;;;;;;9.30;41.20;96265.50;4954830;29;20031;-63
2022/03/26 01:41:23;;;;;;;56.72;30.45;;;;;;;9.40;41.41;96279.81;4954682;29;20484;-64
2022/03/26 01:43:48;;;;;;;62.38;30.35;;;;;;;9.23;41.70;96256.22;4937557;29;20031;-62
2022/03/26 01:46:14;;;;;;;49.55;28.92;;;;;;;9.35;41.53;96281.41;4937523;29;20420;-62
2022/03/26 01:48:39;;;;;;;54.40;29.83;;;;;;;9.44;41.61;96284.34;4954589;28;20114;-62
2022/03/26 01:51:15;;;;;;;58.20;30.65;;;;;;;9.46;41.67;96289.38;4937173;29;20027;-62
2022/03/26 01:53:46;;;;;;;57.42;31.20;;;;;;;9.49;41.62;96283.53;4954675;28;20421;-63
2022/03/26 01:56:13;;;;;;;55.88;30.40;;;;;;;9.56;41.62;96292.00;4954662;28;20046;-63
2022/03/26 01:58:39;;;;;;;59.25;29.95;;;;;;;9.51;41.30;96278.75;4954437;29;20042;-62
2022/03/26 02:01:05;;;;;;;56.33;31.27;;;;;;;9.48;41.42;96277.44;4954263;28;20027;-64
2022/03/26 02:03:31;;;;;;;51.50;29.27;;;;;;;9.36;41.20;96261.75;4954517;29;20362;-63
2022/03/26 02:05:57;;;;;;;54.45;30.35;;;;;;;9.50;41.18;96287.78;4954403;29;20586;-63
2022/03/26 02:08:22;;;;;;;57.85;30.58;;;;;;;9.42;41.74;96280.34;4954079;28;20054;-63
2022/03/26 02:10:48;;;;;;;60.88;30.80;;;;;;;9.38;41.76;96280.91;4954265;29;20074;-62
2022/03/26 02:13:13;;;;;;;59.40;30.90;;;;;;;9.43;41.93;96272.13;4954307;28;20039;-62
2022/03/26 02:15:40;;;;;;;64.85;31.30;;;;;;;9.39;41.95;96268.41;4954172;29;20031;-63
2022/03/26 02:18:06;;;;;;;56.67;28.90;;;;;;;9.27;41.64;96252.78;4954453;29;20035;-62
2022/03/26 02:20:32;;;;;;;53.78;28.58;;;;;;;9.41;42.12;96284.06;4953836;29;20023;-62
2022/03/26 02:22:57;;;;;;;59.13;31.00;;;;;;;9.39;42.07;96284.34;4954132;28;20031;-62
2022/03/26 02:25:22;;;;;;;49.72;28.55;;;;;;;9.28;41.56;96275.59;4954068;28;20027;-62
2022/03/26 02:27:48;;;;;;;58.42;30.02;;;;;;;9.29;42.06;96285.16;4936808;29;20059;-63
2022/03/26 02:30:14;;;;;;;54.13;27.52;;;;;;;9.21;42.43;96275.06;4953672;29;20647;-61
2022/03/26 02:32:39;;;;;;;58.17;28.13;;;;;;;9.13;42.48;96248.28;4953948;29;20035;-62
2022/03/26 02:35:06;;;;;;;51.72;28.90;;;;;;;9.27;42.04;96279.31;4953852;29;20527;-62
2022/03/26 02:37:32;;;;;;;50.28;26.77;;;;;;;9.17;42.87;96284.63;4953946;29;20023;-61
2022/03/26 02:39:59;;;;;;;49.88;28.67;;;;;;;9.06;42.38;96270.56;4953605;29;20024;-62
2022/03/26 02:42:24;;;;;;;49.42;26.58;;;;;;;9.10;42.08;96273.47;4953749;28;20086;-62
2022/03/26 02:44:50;;;;;;;49.25;25.73;;;;;;;9.13;42.29;96278.25;4936717;29;20460;-62
2022/03/26 02:47:15;;;;;;;45.15;25.25;;;;;;;8.98;42.53;96291.53;4953915;29;20441;-62
2022/03/26 02:49:41;;;;;;;49.85;26.13;;;;;;;8.88;43.17;96291.53;4953782;28;20031;-62
2022/03/26 02:52:07;;;;;;;44.42;25.80;;;;;;;8.85;43.01;96290.19;4953435;29;20110;-63
2022/03/26 02:54:33;;;;;;;53.72;27.85;;;;;;;8.71;43.45;96265.25;4953744;29;20035;-63
2022/03/26 02:56:58;;;;;;;42.47;25.70;;;;;;;8.64;43.81;96270.81;4953682;28;20513;-62
2022/03/26 02:59:24;;;;;;;52.92;26.50;;;;;;;8.80;43.09;96295.47;4953355;29;20027;-62
2022/03/26 03:01:51;;;;;;;46.90;25.15;;;;;;;8.73;43.66;96289.66;4953517;29;20373;-64
2022/03/26 03:04:17;;;;;;;51.67;30.08;;;;;;;8.75;43.81;96291.00;4953485;29;20457;-62
2022/03/26 03:06:42;;;;;;;50.78;27.40;;;;;;;8.81;43.73;96295.25;4952512;28;20041;-62
2022/03/26 03:09:08;;;;;;;50.83;27.60;;;;;;;8.72;43.64;96283.56;4953307;29;20031;-62
2022/03/26 03:11:35;;;;;;;58.80;31.35;;;;;;;8.73;43.54;96293.09;4953384;29;20031;-63
2022/03/26 03:14:01;;;;;;;55.67;30.65;;;;;;;8.75;43.31;96293.66;4953453;29;20365;-62
2022/03/26 03:16:26;;;;;;;54.53;30.38;;;;;;;8.78;43.81;96290.44;4953406;29;20524;-62
2022/03/26 03:18:52;;;;;;;54.67;30.27;;;;;;;8.92;43.21;96311.16;4953979;28;20115;-63
2022/03/26 03:21:17;;;;;;;48.58;29.10;;;;;;;8.83;43.21;96300.28;4958376;29;20452;-62
2022/03/26 03:23:43;;;;;;;56.58;30.65;;;;;;;8.51;43.56;96260.72;4959211;28;20031;-61
2022/03/26 03:26:09;;;;;;;57.60;31.40;;;;;;;8.71;43.27;96292.56;4958984;28;20416;-63
2022/03/26 03:28:34;;;;;;;55.80;29.25;;;;;;;8.87;43.64;96300.56;4959439;28;20039;-63
2022/03/26 03:31:00;;;;;;;54.85;27.80;;;;;;;8.82;43.25;96298.69;4959272;29;20114;-63
2022/03/26 03:33:25;;;;;;;56.08;29.17;;;;;;;8.70;43.42;96309.56;4959634;28;20035;-63
2022/03/26 03:35:51;;;;;;;57.80;31.10;;;;;;;8.60;43.64;96298.94;4942396;29;20118;-63
2022/03/26 03:38:16;;;;;;;55.17;28.60;;;;;;;8.39;44.48;96278.72;4959630;28;20031;-63
2022/03/26 03:40:42;;;;;;;54.28;28.70;;;;;;;8.56;43.85;96293.34;4959265;29;20403;-63
2022/03/26 03:43:07;;;;;;;45.80;26.08;;;;;;;8.62;43.95;96302.09;4959601;28;20065;-63
2022/03/26 03:45:34;;;;;;;45.10;25.40;;;;;;;8.50;43.45;96285.66;4959729;28;20397;-63
2022/03/26 03:47:59;;;;;;;44.40;26.00;;;;;;;8.69;43.65;96309.81;4959618;28;20034;-63
2022/03/26 03:50:25;;;;;;;39.80;24.50;;;;;;;8.31;44.57;96302.00;4959120;29;20027;-63
2022/03/26 03:52:51;;;;;;;38.95;25.00;;;;;;;8.19;45.08;96300.63;4959373;29;20050;-62
2022/03/26 03:55:16;;;;;;;45.80;26.02;;;;;;;8.49;44.32;96318.50;4959486;29;20461;-62
2022/03/26 03:57:42;;;;;;;51.05;27.15;;;;;;;8.48;43.86;96308.97;4959403;28;20058;-62
2022/03/26 04:00:12;;;;;;;39.50;24.58;;;;;;;8.40;44.23;96301.53;4959166;28;20034;-63
2022/03/26 04:02:38;;;;;;;45.45;26.15;;;;;;;8.25;44.05;96278.41;4959382;28;20495;-62
2022/03/26 04:05:04;;;;;;;41.53;25.50;;;;;;;8.25;44.03;96294.31;4959297;28;20035;-62
2022/03/26 04:07:29;;;;;;;47.22;25.20;;;;;;;8.28;44.43;96307.00;4959460;29;20035;-62
2022/03/26 04:09:55;;;;;;;48.10;27.83;;;;;;;8.03;44.53;96276.72;4959193;28;20028;-62
2022/03/26 04:12:20;;;;;;;47.92;26.88;;;;;;;7.77;45.36;96278.47;4959116;28;20035;-64
2022/03/26 04:14:46;;;;;;;45.78;27.17;;;;;;;8.00;45.14;96292.34;4942025;28;20055;-63
2022/03/26 04:17:12;;;;;;;45.30;26.88;;;;;;;7.96;44.21;96278.03;4959442;28;20023;-63
2022/03/26 04:19:39;;;;;;;49.92;27.33;;;;;;;8.00;44.87;96295.00;4959190;29;20075;-63
2022/03/26 04:22:06;;;;;;;50.53;27.35;;;;;;;7.90;45.16;96292.31;4959205;29;20035;-62
2022/03/26 04:24:32;;;;;;;49.35;28.38;;;;;;;7.85;44.58;96295.72;4959270;28;20106;-63
2022/03/26 04:26:57;;;;;;;46.75;28.15;;;;;;;7.71;45.39;96284.78;4959208;28;20131;-62
2022/03/26 04:29:22;;;;;;;50.25;28.92;;;;;;;7.78;45.03;96298.63;4959037;28;20035;-63
2022/03/26 04:31:48;;;;;;;50.60;27.45;;;;;;;7.73;45.51;96309.19;4956728;28;20508;-63
2022/03/26 04:34:13;;;;;;;47.85;26.75;;;;;;;7.72;44.95;96309.41;4956098;29;20417;-62
2022/03/26 04:36:39;;;;;;;46.00;26.30;;;;;;;7.49;45.46;96284.16;4938843;29;20038;-62
2022/03/26 04:39:05;;;;;;;48.60;28.00;;;;;;;7.52;45.48;96300.31;4955804;29;20027;-62
2022/03/26 04:41:30;;;;;;;48.50;29.38;;;;;;;7.42;45.69;96283.56;4938368;28;20476;-62
2022/03/26 04:43:56;;;;;;;46.78;27.83;;;;;;;7.49;45.47;96298.19;4954732;29;20024;-62
2022/03/26 04:46:21;;;;;;;46.90;27.80;;;;;;;7.59;45.62;96318.63;4955932;29;20484;-62
2022/03/26 04:48:46;;;;;;;48.85;29.08;;;;;;;7.49;46.24;96300.81;4955559;29;20030;-62
2022/03/26 04:51:13;;;;;;;45.50;27.15;;;;;;;7.49;45.60;96313.28;4955670;29;20078;-63
2022/03/26 04:53:39;;;;;;;49.08;28.90;;;;;;;7.35;46.58;96331.44;4955849;28;20035;-63
2022/03/26 04:56:04;;;;;;;50.03;26.55;;;;;;;7.35;46.67;96312.91;4955675;28;20027;-61
2022/03/26 04:58:30;;;;;;;46.33;27.52;;;;;;;7.11;46.68;96288.63;4955531;29;20035;-62
2022/03/26 05:00:55;;;;;;;49.13;27.88;;;;;;;7.38;46.54;96317.69;4938290;29;20038;-63
2022/03/26 05:03:20;;;;;;;47.58;28.58;;;;;;;7.30;46.17;96300.44;4955566;29;20031;-62
2022/03/26 05:05:46;;;;;;;54.78;27.73;;;;;;;7.40;46.73;96312.16;4955503;29;20110;-63
2022/03/26 05:08:11;;;;;;;44.85;27.17;;;;;;;7.38;46.35;96303.66;4938301;29;20031;-63
2022/03/26 05:10:36;;;;;;;54.70;28.02;;;;;;;7.31;46.28;96290.63;4937865;29;20063;-62
2022/03/26 05:13:02;;;;;;;52.25;28.35;;;;;;;7.32;46.86;96304.66;4955332;29;20451;-63
2022/03/26 05:15:27;;;;;;;49.45;27.90;;;;;;;7.15;47.37;96325.97;4955252;29;20038;-63
2022/03/26 05:17:54;;;;;;;46.00;27.58;;;;;;;7.24;47.58;96333.19;4955389;29;20026;-63
2022/03/26 05:20:20;;;;;;;51.92;28.23;;;;;;;7.32;47.05;96329.31;4954987;28;20106;-62
2022/03/26 05:22:47;;;;;;;48.67;27.55;;;;;;;7.36;47.19;96311.06;4937994;29;20436;-61
2022/03/26 05:25:13;;;;;;;45.22;27.40;;;;;;;7.37;46.69;96305.53;4955003;29;20035;-62
2022/03/26 05:27:50;;;;;;;48.15;26.08;;;;;;;7.54;46.38;96337.13;4955313;29;20197;-63
2022/03/26 05:30:18;;;;;;;47.13;28.20;;;;;;;7.26;46.56;96341.69;4954823;28;20542;-64
2022/03/26 05:32:44;;;;;;;50.88;27.13;;;;;;;6.82;47.71;96341.06;4955112;28;20042;-62
2022/03/26 05:35:16;;;;;;;44.08;26.65;;;;;;;6.85;47.85;96323.88;4955045;29;20047;-62
2022/03/26 05:37:43;;;;;;;49.72;25.65;;;;;;;6.80;48.26;96337.03;4955115;29;20034;-62
2022/03/26 05:40:11;;;;;;;45.80;25.98;;;;;;;6.90;48.26;96334.50;4953502;28;20559;-62
2022/03/26 05:42:37;;;;;;;42.17;26.45;;;;;;;7.21;47.03;96331.06;4937198;29;20492;-62
2022/03/26 05:45:07;;;;;;;41.92;25.13;;;;;;;7.53;46.31;96343.47;4937602;29;20055;-62
2022/03/26 05:47:33;;;;;;;43.28;25.42;;;;;;;7.64;45.77;96345.13;4954823;28;20027;-63
2022/03/26 05:49:59;;;;;;;43.47;25.48;;;;;;;7.71;46.35;96337.75;4954519;28;20023;-62
2022/03/26 05:52:25;;;;;;;50.00;27.88;;;;;;;7.72;46.45;96331.41;4954524;29;20039;-62
2022/03/26 05:54:51;;;;;;;44.63;27.25;;;;;;;7.88;46.24;96342.09;4937477;29;20027;-63
2022/03/26 05:57:18;;;;;;;47.30;28.33;;;;;;;8.10;46.56;96334.00;4954824;29;20508;-63
2022/03/26 05:59:44;;;;;;;47.70;27.80;;;;;;;8.15;45.93;96318.91;4937133;29;20023;-62
2022/03/26 06:02:12;;;;;;;42.60;25.88;;;;;;;8.42;45.08;96347.94;4954516;29;20027;-63
2022/03/26 06:04:37;;;;;;;54.75;28.38;;;;;;;8.54;45.28;96350.34;4954227;28;20106;-63
2022/03/26 06:07:03;;;;;;;46.55;27.63;;;;;;;8.56;45.21;96342.94;4954452;29;20122;-63
2022/03/26 06:09:28;;;;;;;46.28;27.08;;;;;;;8.75;45.00;96361.78;4954301;29;20024;-62
2022/03/26 06:11:55;;;;;;;54.78;29.27;;;;;;;8.92;44.65;96364.25;4954102;28;20035;-62
2022/03/26 06:14:21;;;;;;;45.83;28.15;;;;;;;9.01;44.15;96371.44;4954363;29;20090;-63
2022/03/26 06:16:46;;;;;;;49.55;29.05;;;;;;;9.05;44.43;96376.97;4937065;29;20031;-62
2022/03/26 06:19:13;;;;;;;46.03;28.05;;;;;;;8.99;44.37;96375.38;4954013;28;20420;-63
2022/03/26 06:21:38;;;;;;;49.42;29.48;;;;;;;9.15;43.99;96374.34;4953983;29;20035;-63
2022/03/26 06:24:04;;;;;;;52.30;30.08;;;;;;;9.35;43.77;96366.38;4952953;29;20026;-62
2022/03/26 06:26:30;;;;;;;51.58;30.00;;;;;;;9.55;43.50;96372.75;4953684;28;20035;-62
2022/03/26 06:28:56;;;;;;;48.75;28.15;;;;;;;9.66;42.84;96369.03;4952357;29;20027;-61
2022/03/26 06:31:22;;;;;;;57.28;28.65;;;;;;;9.74;42.87;96375.69;4953909;29;20023;-61
2022/03/26 06:33:47;;;;;;;43.88;27.42;;;;;;;9.84;42.76;96373.78;4936566;29;20070;-62
2022/03/26 06:36:13;;;;;;;48.25;28.70;;;;;;;9.53;42.86;96357.09;4954156;29;20058;-61
2022/03/26 06:38:41;;;;;;;48.05;28.98;;;;;;;9.70;42.65;96340.88;4953952;29;20128;-63
2022/03/26 06:41:10;;;;;;;53.45;29.25;;;;;;;10.11;42.63;96360.16;4953927;29;20121;-62
2022/03/26 06:43:37;;;;;;;51.67;30.70;;;;;;;10.25;42.19;96349.78;4953121;28;20035;-61
2022/03/26 06:46:03;;;;;;;59.20;33.42;;;;;;;10.53;41.67;96368.81;4953822;29;20028;-62
2022/03/26 06:48:29;;;;;;;56.90;33.33;;;;;;;10.72;41.54;96387.63;4953650;28;20027;-62
2022/03/26 06:50:54;;;;;;;61.95;33.65;;;;;;;10.77;40.97;96369.78;4953714;29;20039;-61
2022/03/26 06:53:20;;;;;;;59.45;32.97;;;;;;;10.78;41.14;96363.38;4952482;28;20054;-61
2022/03/26 06:55:46;;;;;;;57.45;33.45;;;;;;;10.98;40.37;96367.00;4953126;29;20031;-62
2022/03/26 06:58:11;;;;;;;57.33;33.15;;;;;;;11.24;40.04;96392.38;4941530;28;20035;-61
2022/03/26 07:00:37;;;;;;;58.63;31.88;;;;;;;11.35;39.91;96388.56;4934358;29;20020;-61
2022/03/26 07:03:02;;;;;;;59.83;32.47;;;;;;;11.48;40.19;96395.13;4934476;29;20067;-61
2022/03/26 07:05:28;;;;;;;57.10;32.20;;;;;;;11.25;39.44;96366.53;4934550;29;20462;-61
2022/03/26 07:07:53;;;;;;;53.30;31.35;;;;;;;11.55;39.25;96376.16;4934556;29;20019;-61
2022/03/26 07:10:19;;;;;;;65.90;34.30;;;;;;;11.85;39.59;96393.78;4934205;29;20437;-62
2022/03/26 07:12:44;;;;;;;61.08;33.45;;;;;;;11.64;38.95;96377.94;4940767;28;20063;-62
2022/03/26 07:15:10;;;;;;;64.68;33.65;;;;;;;11.95;38.48;96391.81;4953557;29;20496;-61
2022/03/26 07:17:39;;;;;;;56.00;33.65;;;;;;;12.11;38.70;96399.66;4953534;29;20098;-62
2022/03/26 07:20:05;;;;;;;55.17;31.70;;;;;;;12.10;38.88;96382.88;4953231;29;20058;-61
2022/03/26 07:22:31;;;;;;;63.00;34.47;;;;;;;12.37;38.03;96406.31;4953393;29;20110;-62
2022/03/26 07:24:56;;;;;;;59.38;33.15;;;;;;;12.44;38.14;96400.66;4953555;29;20107;-62
2022/03/26 07:27:22;;;;;;;52.70;31.90;;;;;;;12.09;38.66;96404.50;4950176;28;20027;-63
2022/03/26 07:29:48;;;;;;;64.63;34.63;;;;;;;12.04;38.69;96412.56;4934226;29;20468;-63
2022/03/26 07:32:14;;;;;;;56.67;34.17;;;;;;;12.20;38.31;96389.97;4934148;29;20020;-62
2022/03/26 07:34:40;;;;;;;56.10;35.28;;;;;;;12.59;37.69;96408.50;4934182;29;20030;-61
2022/03/26 07:37:05;;;;;;;56.20;32.58;;;;;;;12.74;37.77;96381.59;4917140;29;20611;-62
2022/03/26 07:39:31;;;;;;;58.28;35.30;;;;;;;12.90;36.63;96398.22;4934042;29;20032;-62
2022/03/26 07:41:56;;;;;;;56.78;33.92;;;;;;;12.84;36.39;96391.31;4934168;29;20075;-63
2022/03/26 07:44:22;;;;;;;53.80;32.42;;;;;;;12.78;37.07;96403.16;4951103;28;20042;-64
2022/03/26 07:46:47;;;;;;;50.65;30.73;;;;;;;13.17;36.69;96381.53;4951918;29;20396;-64
2022/03/26 07:49:12;;;;;;;53.67;32.28;;;;;;;13.59;35.94;96395.09;4952965;29;20077;-63
2022/03/26 07:51:38;;;;;;;54.33;32.75;;;;;;;13.88;34.47;96401.03;4953233;29;20067;-63
2022/03/26 07:54:04;;;;;;;50.13;30.52;;;;;;;13.86;34.41;96387.16;4952100;29;20035;-63
2022/03/26 07:56:29;;;;;;;48.67;30.90;;;;;;;13.85;33.97;96390.13;4953259;29;20037;-62
2022/03/26 07:58:57;;;;;;;55.92;30.83;;;;;;;13.65;34.09;96385.91;4952167;28;20042;-62
2022/03/26 08:01:23;;;;;;;45.45;28.50;;;;;;;13.96;34.27;96380.81;4952889;28;20392;-63
2022/03/26 08:03:53;;;;;;;50.05;28.90;;;;;;;13.83;33.64;96385.06;4953154;29;20492;-63
2022/03/26 08:06:19;;;;;;;57.10;30.83;;;;;;;14.10;34.01;96387.00;4955001;28;20102;-64
2022/03/26 08:08:44;;;;;;;57.03;31.20;;;;;;;14.44;33.31;96400.00;4955104;29;20588;-64
2022/03/26 08:11:10;;;;;;;47.33;28.60;;;;;;;14.21;33.39;96395.63;4956493;28;20028;-61
2022/03/26 08:13:35;;;;;;;45.97;29.67;;;;;;;14.54;33.36;96407.09;4955637;28;20129;-65
2022/03/26 08:16:00;;;;;;;49.50;30.08;;;;;;;14.61;33.09;96398.66;4955267;28;20472;-63
2022/03/26 08:18:26;;;;;;;47.80;29.95;;;;;;;14.42;33.00;96404.84;4956344;29;20028;-65
2022/03/26 08:20:51;;;;;;;44.83;28.30;;;;;;;14.40;32.60;96407.03;4956412;29;20381;-64
2022/03/26 08:23:16;;;;;;;49.53;29.30;;;;;;;14.48;32.96;96403.69;4955241;29;20054;-63
2022/03/26 08:28:26;;;;;;;55.13;28.40;;;;;;;14.61;32.32;96407.47;4955227;28;20066;-65
2022/03/26 08:30:52;;;;;;;49.88;28.75;;;;;;;14.79;32.52;96403.91;4955915;29;20027;-63
2022/03/26 08:33:17;;;;;;;49.35;30.58;;;;;;;14.97;32.37;96407.53;4956058;29;20511;-63
2022/03/26 08:35:42;;;;;;;51.42;29.65;;;;;;;14.86;31.98;96413.41;4956186;29;20110;-64
2022/03/26 08:38:08;;;;;;;46.65;28.42;;;;;;;15.05;31.61;96414.88;4956228;29;20118;-64
2022/03/26 08:40:35;;;;;;;49.05;31.00;;;;;;;14.88;31.49;96395.94;4955764;29;20027;-64
2022/03/26 08:43:00;;;;;;;48.08;28.60;;;;;;;14.66;31.87;96407.38;4955103;28;20035;-64
2022/03/26 08:45:29;;;;;;;46.85;30.50;;;;;;;14.38;32.48;96421.81;4955860;29;20031;-64
2022/03/26 08:47:55;;;;;;;46.60;28.65;;;;;;;14.29;32.92;96408.34;4954739;29;20101;-64
2022/03/26 08:50:21;;;;;;;58.00;30.17;;;;;;;14.44;31.95;96420.66;4955582;29;20492;-64
2022/03/26 08:52:50;;;;;;;49.13;29.92;;;;;;;14.94;31.55;96418.84;4954445;29;20105;-63
2022/03/26 08:55:16;;;;;;;54.88;30.73;;;;;;;15.02;31.42;96410.09;4938557;29;20036;-65
2022/03/26 08:57:42;;;;;;;47.08;30.77;;;;;;;14.94;31.28;96420.72;4955617;28;20373;-64
2022/03/26 09:00:09;;;;;;;47.20;30.02;;;;;;;15.25;31.17;96410.13;4954575;28;20030;-65
2022/03/26 09:02:35;;;;;;;54.70;30.92;;;;;;;15.03;31.24;96426.97;4955631;29;20201;-63
2022/03/26 09:05:01;;;;;;;54.03;30.67;;;;;;;14.56;31.54;96431.66;4954091;29;20042;-64
2022/03/26 09:07:26;;;;;;;51.40;31.60;;;;;;;15.00;31.41;96419.56;4955426;28;20470;-63
2022/03/26 09:09:52;;;;;;;47.55;29.95;;;;;;;14.74;31.60;96409.38;4955320;29;20043;-64
2022/03/26 09:12:17;;;;;;;48.03;31.40;;;;;;;15.03;31.02;96419.72;4955072;28;20027;-65
2022/03/26 09:14:43;;;;;;;50.47;31.33;;;;;;;15.21;30.99;96427.94;4953047;28;20440;-64
2022/03/26 09:17:09;;;;;;;50.22;31.92;;;;;;;15.19;30.78;96432.78;4954481;28;20023;-63
2022/03/26 09:19:35;;;;;;;51.25;30.27;;;;;;;15.70;30.48;96428.97;4955231;29;20058;-64
2022/03/26 09:22:01;;;;;;;52.97;31.02;;;;;;;15.51;30.61;96413.84;4954017;29;20459;-63
2022/03/26 09:24:26;;;;;;;55.92;32.78;;;;;;;15.36;30.60;96411.50;4955241;29;20415;-65
2022/03/26 09:26:51;;;;;;;51.80;32.53;;;;;;;15.38;30.44;96414.69;4953919;28;20039;-64
2022/03/26 09:29:17;;;;;;;50.40;32.05;;;;;;;15.54;30.27;96418.59;4953869;28;20033;-64
2022/03/26 09:31:42;;;;;;;54.75;31.40;;;;;;;15.72;30.30;96408.81;4955090;28;20031;-64
2022/03/26 09:34:08;;;;;;;48.05;31.50;;;;;;;15.81;29.47;96406.97;4955078;28;20375;-65
2022/03/26 09:36:34;;;;;;;49.47;32.83;;;;;;;16.00;29.85;96419.41;4955171;29;20030;-64
2022/03/26 09:38:59;;;;;;;54.47;32.92;;;;;;;15.73;29.98;96415.75;4954504;28;20031;-64
2022/03/26 09:41:27;;;;;;;52.65;31.65;;;;;;;16.06;29.12;96410.91;4954417;28;20023;-65
2022/03/26 09:43:54;;;;;;;60.38;33.97;;;;;;;16.22;29.21;96410.50;4952466;28;20039;-65
2022/03/26 09:46:20;;;;;;;56.28;32.30;;;;;;;16.22;29.20;96410.50;4954782;29;20059;-65
2022/03/26 09:48:46;;;;;;;52.95;33.92;;;;;;;15.84;29.21;96421.66;4937401;29;20059;-67
2022/03/26 09:51:14;;;;;;;52.45;35.13;;;;;;;16.01;29.14;96410.25;4941410;29;20032;-63
2022/03/26 09:53:41;;;;;;;54.50;33.67;;;;;;;15.88;29.72;96395.81;4935727;29;20031;-66
2022/03/26 09:56:07;;;;;;;56.67;35.15;;;;;;;16.05;29.48;96395.09;4934205;29;20042;-67
2022/03/26 09:58:32;;;;;;;61.00;34.75;;;;;;;16.79;28.90;96397.19;4936354;28;20019;-64
2022/03/26 10:00:58;;;;;;;57.30;33.58;;;;;;;17.17;28.88;96405.44;4954371;29;20058;-65
2022/03/26 10:03:23;;;;;;;55.22;34.22;;;;;;;16.83;28.30;96404.28;4953146;28;20031;-64
2022/03/26 10:06:00;;;;;;;55.53;34.20;;;;;;;16.55;28.51;96397.53;4953100;28;20057;-64
2022/03/26 10:08:25;;;;;;;59.70;33.58;;;;;;;16.39;29.33;96399.84;4954289;28;20038;-65
2022/03/26 10:10:51;;;;;;;52.97;33.80;;;;;;;16.36;28.85;96370.94;4954409;29;20027;-64
2022/03/26 10:13:40;;;;;;;52.40;33.90;;;;;;;16.89;28.69;96407.63;4954258;29;20090;-63
2022/03/26 10:16:13;;;;;;;52.85;34.53;;;;;;;16.91;28.42;96388.50;4934913;29;20036;-64
2022/03/26 10:18:47;;;;;;;57.25;33.05;;;;;;;17.14;27.98;96398.78;4935069;29;20027;-63
2022/03/26 10:21:14;;;;;;;59.40;33.80;;;;;;;17.19;28.16;96405.13;4934838;29;20113;-64
2022/03/26 10:23:48;;;;;;;51.42;33.42;;;;;;;17.19;27.79;96384.41;4933622;29;20028;-64
2022/03/26 10:26:15;;;;;;;56.22;33.50;;;;;;;17.38;27.96;96400.25;4935171;29;20036;-65
2022/03/26 10:28:42;;;;;;;58.25;34.80;;;;;;;16.86;28.56;96382.16;4935002;28;20111;-62
2022/03/26 10:34:15;;;;;;;51.75;32.45;;;;;;;17.42;27.20;96393.13;4953874;29;20073;-63
2022/03/26 10:36:54;;;;;;;50.63;32.15;;;;;;;17.99;26.59;96394.81;4954078;29;20020;-65
2022/03/26 10:39:25;;;;;;;57.53;34.72;;;;;;;17.82;27.04;96390.28;4953880;29;20031;-66
2022/03/26 10:41:54;;;;;;;56.65;34.20;;;;;;;17.89;26.63;96385.19;4952431;28;20122;-66
2022/03/26 10:44:25;;;;;;;54.17;32.80;;;;;;;17.68;26.32;96380.44;4947927;28;20030;-63
2022/03/26 10:46:52;;;;;;;55.13;32.83;;;;;;;17.88;26.31;96389.78;4934705;29;20512;-66
2022/03/26 10:49:30;;;;;;;49.30;32.65;;;;;;;18.07;25.98;96385.94;4934387;29;20276;-65
2022/03/26 10:52:03;;;;;;;49.13;33.85;;;;;;;18.02;26.25;96389.59;4934274;29;20027;-65
2022/03/26 10:54:31;;;;;;;51.33;31.98;;;;;;;18.01;25.86;96379.91;4917453;29;20031;-64
2022/03/26 10:57:01;;;;;;;52.83;32.60;;;;;;;18.47;25.62;96372.16;4934134;29;20028;-66
2022/03/26 10:59:27;;;;;;;49.75;32.17;;;;;;;18.28;25.29;96351.81;4937283;28;20035;-66
2022/03/26 11:01:53;;;;;;;51.33;32.67;;;;;;;18.18;25.48;96363.72;4953290;29;20106;-65
2022/03/26 11:04:19;;;;;;;45.88;31.50;;;;;;;17.86;25.72;96373.19;4953591;28;20030;-66
2022/03/26 11:06:45;;;;;;;49.33;32.50;;;;;;;18.29;25.39;96361.47;4953559;29;20030;-65
2022/03/26 11:09:11;;;;;;;46.45;32.03;;;;;;;18.50;25.01;96369.59;4952132;28;20485;-66
2022/03/26 11:11:37;;;;;;;44.55;30.05;;;;;;;18.88;24.77;96363.41;4953187;29;20038;-67
2022/03/26 11:14:10;;;;;;;55.33;32.20;;;;;;;18.86;24.83;96363.72;4952314;28;20037;-66
2022/03/26 11:17:08;;;;;;;48.53;32.15;;;;;;;18.60;24.69;96371.94;4953547;29;20109;-65
2022/03/26 11:19:45;;;;;;;50.85;31.40;;;;;;;18.13;25.51;96366.59;4942862;28;20042;-67
2022/03/26 11:22:27;;;;;;;56.53;32.85;;;;;;;18.65;24.86;96352.09;4953112;28;20028;-65
2022/03/26 11:25:08;;;;;;;47.08;30.98;;;;;;;18.42;24.69;96355.06;4953717;29;20027;-66